createdAt,value
2019-03-29T00:00:17.060Z,99.99
2019-03-29T00:01:17.047Z,99.99
2019-03-29T00:02:17.128Z,99.99
2019-03-29T00:03:17.034Z,99.99
2019-03-29T00:04:17.028Z,99.99
2019-03-29T00:05:17.049Z,99.99
2019-03-29T00:06:17.020Z,99.99
2019-03-29T00:07:17.011Z,99.99
2019-03-29T00:08:17.009Z,99.99
2019-03-29T00:09:16.997Z,99.99
2019-03-29T00:10:16.994Z,99.99
2019-03-29T00:11:16.988Z,99.99
2019-03-29T00:12:16.982Z,99.99
2019-03-29T00:13:16.977Z,99.99
2019-03-29T00:14:16.973Z,99.99
2019-03-29T00:15:16.981Z,99.99
2019-03-29T00:16:16.959Z,99.99
2019-03-29T00:17:17.983Z,99.99
2019-03-29T00:18:16.948Z,99.99
2019-03-29T00:19:16.942Z,99.99
2019-03-29T00:20:16.936Z,99.99
2019-03-29T00:21:16.930Z,99.99
2019-03-29T00:22:16.927Z,99.99
2019-03-29T00:23:16.923Z,99.99
2019-03-29T00:24:16.917Z,99.99
2019-03-29T00:25:16.909Z,99.99
2019-03-29T00:26:16.902Z,99.99
2019-03-29T00:27:16.895Z,99.99
2019-03-29T00:28:16.889Z,99.99
2019-03-29T00:29:16.885Z,99.99
2019-03-29T00:30:16.879Z,99.99
2019-03-29T00:31:16.873Z,99.99
2019-03-29T00:32:16.868Z,99.99
2019-03-29T00:33:16.862Z,99.99
2019-03-29T00:34:16.858Z,99.99
2019-03-29T00:35:16.850Z,99.99
2019-03-29T00:36:16.845Z,99.99
2019-03-29T00:37:17.912Z,99.99
2019-03-29T00:38:16.835Z,99.99
2019-03-29T00:39:16.841Z,99.99
2019-03-29T00:40:16.826Z,99.99
2019-03-29T00:41:16.819Z,99.99
2019-03-29T00:42:17.155Z,99.99
2019-03-29T00:43:16.805Z,99.99
2019-03-29T00:44:16.816Z,99.99
2019-03-29T00:45:16.796Z,99.99
2019-03-29T00:46:16.790Z,99.99
2019-03-29T00:47:16.782Z,99.99
2019-03-29T00:48:16.779Z,99.99
2019-03-29T00:49:16.772Z,99.99
2019-03-29T00:50:16.766Z,99.99
2019-03-29T00:51:16.762Z,99.99
2019-03-29T00:52:16.924Z,99.99
2019-03-29T00:53:16.749Z,99.99
2019-03-29T00:54:16.745Z,99.99
2019-03-29T00:55:16.738Z,99.99
2019-03-29T00:56:16.732Z,99.99
2019-03-29T00:57:16.733Z,99.99
2019-03-29T00:58:16.724Z,99.99
2019-03-29T00:59:16.717Z,99.99
2019-03-29T01:00:16.711Z,99.99
2019-03-29T01:01:16.704Z,99.99
2019-03-29T01:02:16.703Z,99.99
2019-03-29T01:03:16.695Z,99.99
2019-03-29T01:04:16.693Z,99.99
2019-03-29T01:05:16.684Z,99.99
2019-03-29T01:06:16.681Z,99.99
2019-03-29T01:07:16.672Z,99.99
2019-03-29T01:08:16.666Z,99.99
2019-03-29T01:09:16.661Z,99.99
2019-03-29T01:10:16.657Z,99.99
2019-03-29T01:11:16.651Z,99.99
2019-03-29T01:12:16.644Z,99.99
2019-03-29T01:13:16.639Z,99.99
2019-03-29T01:14:16.945Z,99.99
2019-03-29T01:15:16.629Z,99.99
2019-03-29T01:16:16.624Z,99.99
2019-03-29T01:17:16.615Z,99.99
2019-03-29T01:18:16.613Z,99.99
2019-03-29T01:19:16.609Z,99.99
2019-03-29T01:20:16.599Z,99.99
2019-03-29T01:21:16.598Z,99.99
2019-03-29T01:22:16.590Z,99.99
2019-03-29T01:23:16.584Z,99.99
2019-03-29T01:24:16.579Z,99.99
2019-03-29T01:25:16.572Z,99.99
2019-03-29T01:26:16.575Z,99.99
2019-03-29T01:27:16.564Z,99.99
2019-03-29T01:28:16.555Z,99.99
2019-03-29T01:29:16.550Z,99.99
2019-03-29T01:30:16.547Z,99.99
2019-03-29T01:31:16.539Z,99.99
2019-03-29T01:32:16.539Z,99.99
2019-03-29T01:33:16.529Z,99.99
2019-03-29T01:34:17.140Z,99.99
2019-03-29T01:35:16.516Z,99.99
2019-03-29T01:36:16.511Z,99.99
2019-03-29T01:37:16.506Z,99.99
2019-03-29T01:38:22.027Z,99.99
2019-03-29T01:39:17.020Z,99.99
2019-03-29T01:40:16.489Z,99.99
2019-03-29T01:41:16.484Z,99.99
2019-03-29T01:42:16.478Z,99.99
2019-03-29T01:43:16.471Z,99.99
2019-03-29T01:44:16.466Z,99.99
2019-03-29T01:45:16.468Z,99.99
2019-03-29T01:46:16.456Z,99.99
2019-03-29T01:47:16.451Z,99.99
2019-03-29T01:48:16.443Z,99.99
2019-03-29T01:49:16.440Z,99.99
2019-03-29T01:50:16.435Z,99.99
2019-03-29T01:51:16.427Z,99.99
2019-03-29T01:52:16.425Z,99.99
2019-03-29T01:53:16.417Z,99.99
2019-03-29T01:54:16.413Z,99.99
2019-03-29T01:55:16.405Z,99.99
2019-03-29T01:56:16.400Z,99.99
2019-03-29T01:57:16.394Z,99.99
2019-03-29T01:58:16.392Z,99.99
2019-03-29T01:59:17.099Z,99.99
2019-03-29T02:00:16.381Z,99.99
2019-03-29T02:01:16.374Z,99.99
2019-03-29T02:02:16.367Z,99.99
2019-03-29T02:03:16.363Z,99.99
2019-03-29T02:04:16.355Z,99.99
2019-03-29T02:05:16.354Z,99.99
2019-03-29T02:06:16.345Z,99.99
2019-03-29T02:07:16.340Z,99.99
2019-03-29T02:08:16.334Z,99.99
2019-03-29T02:09:16.333Z,99.99
2019-03-29T02:10:16.325Z,99.99
2019-03-29T02:11:16.319Z,99.99
2019-03-29T02:12:16.313Z,99.99
2019-03-29T02:13:16.307Z,99.99
2019-03-29T02:14:16.311Z,99.99
2019-03-29T02:15:16.297Z,99.99
2019-03-29T02:16:16.292Z,99.99
2019-03-29T02:17:16.286Z,99.99
2019-03-29T02:18:16.282Z,99.99
2019-03-29T02:19:16.272Z,99.99
2019-03-29T02:20:16.272Z,99.99
2019-03-29T02:21:16.938Z,99.99
2019-03-29T02:22:16.257Z,99.99
2019-03-29T02:23:16.252Z,99.99
2019-03-29T02:24:16.248Z,99.99
2019-03-29T02:25:16.417Z,99.99
2019-03-29T02:26:16.235Z,99.99
2019-03-29T02:27:16.229Z,99.99
2019-03-29T02:28:16.294Z,99.99
2019-03-29T02:29:16.232Z,99.99
2019-03-29T02:30:16.215Z,99.99
2019-03-29T02:31:16.214Z,99.99
2019-03-29T02:32:16.203Z,99.99
2019-03-29T02:33:16.204Z,99.99
2019-03-29T02:34:16.354Z,99.99
2019-03-29T02:35:16.188Z,99.99
2019-03-29T02:36:16.182Z,99.99
2019-03-29T02:37:16.180Z,99.99
2019-03-29T02:38:16.170Z,99.99
2019-03-29T02:39:16.165Z,99.99
2019-03-29T02:40:16.162Z,99.99
2019-03-29T02:41:16.159Z,99.99
2019-03-29T02:42:16.147Z,99.99
2019-03-29T02:43:16.146Z,99.99
2019-03-29T02:44:16.139Z,99.99
2019-03-29T02:45:16.132Z,99.99
2019-03-29T02:46:16.132Z,99.99
2019-03-29T02:47:16.130Z,99.99
2019-03-29T02:48:17.072Z,99.99
2019-03-29T02:49:16.110Z,99.99
2019-03-29T02:50:16.135Z,99.99
2019-03-29T02:51:16.097Z,99.99
2019-03-29T02:52:16.095Z,99.99
2019-03-29T02:53:16.098Z,99.99
2019-03-29T02:54:16.091Z,99.99
2019-03-29T02:55:16.077Z,99.99
2019-03-29T02:56:16.077Z,99.99
2019-03-29T02:57:16.108Z,99.99
2019-03-29T02:58:16.060Z,99.99
2019-03-29T02:59:16.054Z,99.99
2019-03-29T03:00:16.046Z,99.99
2019-03-29T03:01:16.050Z,99.99
2019-03-29T03:02:16.036Z,99.99
2019-03-29T03:03:16.032Z,99.99
2019-03-29T03:04:16.030Z,99.99
2019-03-29T03:05:16.024Z,99.99
2019-03-29T03:06:16.013Z,99.99
2019-03-29T03:07:16.013Z,99.99
2019-03-29T03:08:16.001Z,99.99
2019-03-29T03:09:15.994Z,99.99
2019-03-29T03:10:15.990Z,99.99
2019-03-29T03:11:16.079Z,99.99
2019-03-29T03:12:15.982Z,99.99
2019-03-29T03:13:15.974Z,99.99
2019-03-29T03:14:15.969Z,99.99
2019-03-29T03:15:15.966Z,99.99
2019-03-29T03:16:15.961Z,99.99
2019-03-29T03:17:15.951Z,99.99
2019-03-29T03:18:15.951Z,99.99
2019-03-29T03:19:15.938Z,99.99
2019-03-29T03:20:16.110Z,99.99
2019-03-29T03:21:15.932Z,99.99
2019-03-29T03:22:15.939Z,99.99
2019-03-29T03:23:15.918Z,99.99
2019-03-29T03:24:15.911Z,99.99
2019-03-29T03:25:15.912Z,99.99
2019-03-29T03:26:15.900Z,99.99
2019-03-29T03:27:15.897Z,99.99
2019-03-29T03:28:15.889Z,99.99
2019-03-29T03:29:15.884Z,99.99
2019-03-29T03:30:15.887Z,99.99
2019-03-29T03:31:15.873Z,99.99
2019-03-29T03:32:15.873Z,99.99
2019-03-29T03:33:15.882Z,99.99
2019-03-29T03:34:15.879Z,99.99
2019-03-29T03:35:15.853Z,99.99
2019-03-29T03:36:15.844Z,99.99
2019-03-29T03:37:15.838Z,99.99
2019-03-29T03:38:15.848Z,99.99
2019-03-29T03:39:30.725Z,99.99
2019-03-29T03:40:15.826Z,99.99
2019-03-29T03:41:15.823Z,99.99
2019-03-29T03:42:15.813Z,99.99
2019-03-29T03:43:15.816Z,99.99
2019-03-29T03:44:15.801Z,99.99
2019-03-29T03:45:15.817Z,99.99
2019-03-29T03:46:15.788Z,99.99
2019-03-29T03:47:15.783Z,99.99
2019-03-29T03:48:15.777Z,99.99
2019-03-29T03:49:15.772Z,99.99
2019-03-29T03:50:15.764Z,99.99
2019-03-29T03:51:15.762Z,99.99
2019-03-29T03:52:15.761Z,99.99
2019-03-29T03:53:15.760Z,99.99
2019-03-29T03:54:15.744Z,99.99
2019-03-29T03:55:15.738Z,99.99
2019-03-29T03:56:15.731Z,99.99
2019-03-29T03:57:15.727Z,99.99
2019-03-29T03:58:15.720Z,99.99
2019-03-29T03:59:15.714Z,99.99
2019-03-29T04:00:15.709Z,99.99
2019-03-29T04:01:15.704Z,99.99
2019-03-29T04:02:15.698Z,99.99
2019-03-29T04:03:15.692Z,99.99
2019-03-29T04:04:15.685Z,99.99
2019-03-29T04:05:15.681Z,99.99
2019-03-29T04:06:15.677Z,99.99
2019-03-29T04:07:15.669Z,99.99
2019-03-29T04:08:15.667Z,99.99
2019-03-29T04:09:15.659Z,99.99
2019-03-29T04:10:15.655Z,99.99
2019-03-29T04:11:15.652Z,99.99
2019-03-29T04:12:15.643Z,99.99
2019-03-29T04:13:15.639Z,99.99
2019-03-29T04:14:15.632Z,99.99
2019-03-29T04:15:15.627Z,99.99
2019-03-29T04:16:15.621Z,99.99
2019-03-29T04:17:15.612Z,99.99
2019-03-29T04:18:16.557Z,99.99
2019-03-29T04:19:15.602Z,99.99
2019-03-29T04:20:15.600Z,99.99
2019-03-29T04:21:15.597Z,99.99
2019-03-29T04:22:15.591Z,99.99
2019-03-29T04:23:15.579Z,99.99
2019-03-29T04:24:15.572Z,99.99
2019-03-29T04:25:15.570Z,99.99
2019-03-29T04:26:15.563Z,99.99
2019-03-29T04:27:15.561Z,99.99
2019-03-29T04:28:15.553Z,99.99
2019-03-29T04:29:15.544Z,99.99
2019-03-29T04:30:15.542Z,99.99
2019-03-29T04:31:15.551Z,99.99
2019-03-29T04:32:15.543Z,99.99
2019-03-29T04:33:15.523Z,99.99
2019-03-29T04:34:15.518Z,99.99
2019-03-29T04:35:15.512Z,99.99
2019-03-29T04:36:15.513Z,99.99
2019-03-29T04:37:15.502Z,99.99
2019-03-29T04:38:15.497Z,99.99
2019-03-29T04:39:15.491Z,99.99
2019-03-29T04:40:15.490Z,99.99
2019-03-29T04:41:15.479Z,99.99
2019-03-29T04:42:15.475Z,99.99
2019-03-29T04:43:15.560Z,99.99
2019-03-29T04:44:15.461Z,99.99
2019-03-29T04:45:15.456Z,99.99
2019-03-29T04:46:15.450Z,99.99
2019-03-29T04:47:15.447Z,99.99
2019-03-29T04:48:15.442Z,99.99
2019-03-29T04:49:15.433Z,99.99
2019-03-29T04:50:15.431Z,99.99
2019-03-29T04:51:15.423Z,99.99
2019-03-29T04:52:15.419Z,99.99
2019-03-29T04:53:15.411Z,99.99
2019-03-29T04:54:15.406Z,99.99
2019-03-29T04:55:15.399Z,99.99
2019-03-29T04:56:15.395Z,99.99
2019-03-29T04:57:15.389Z,99.99
2019-03-29T04:58:15.382Z,99.99
2019-03-29T04:59:15.376Z,99.99
2019-03-29T05:00:15.373Z,99.99
2019-03-29T05:01:17.346Z,99.99
2019-03-29T05:02:15.361Z,99.99
2019-03-29T05:03:15.355Z,99.99
2019-03-29T05:04:15.350Z,99.99
2019-03-29T05:05:15.348Z,99.99
2019-03-29T05:06:15.338Z,99.99
2019-03-29T05:07:15.334Z,99.99
2019-03-29T05:08:15.323Z,99.99
2019-03-29T05:09:15.322Z,99.99
2019-03-29T05:10:21.667Z,99.99
2019-03-29T05:11:15.316Z,99.99
2019-03-29T05:12:15.304Z,99.99
2019-03-29T05:13:15.303Z,99.99
2019-03-29T05:14:15.294Z,99.99
2019-03-29T05:15:15.288Z,99.99
2019-03-29T05:16:15.285Z,99.99
2019-03-29T05:17:15.279Z,99.99
2019-03-29T05:18:15.271Z,99.99
2019-03-29T05:19:15.267Z,99.99
2019-03-29T05:20:15.265Z,99.99
2019-03-29T05:21:15.257Z,99.99
2019-03-29T05:22:15.249Z,99.99
2019-03-29T05:23:15.249Z,99.99
2019-03-29T05:24:15.240Z,99.99
2019-03-29T05:25:15.230Z,99.99
2019-03-29T05:26:15.227Z,99.99
2019-03-29T05:27:15.223Z,99.99
2019-03-29T05:28:15.221Z,99.99
2019-03-29T05:29:15.210Z,99.99
2019-03-29T05:30:15.206Z,99.99
2019-03-29T05:31:15.201Z,99.99
2019-03-29T05:32:15.195Z,99.99
2019-03-29T05:33:15.189Z,99.99
2019-03-29T05:34:15.185Z,99.99
2019-03-29T05:35:15.181Z,99.99
2019-03-29T05:36:15.172Z,99.99
2019-03-29T05:37:15.169Z,99.99
2019-03-29T05:38:15.163Z,99.99
2019-03-29T05:39:15.156Z,99.99
2019-03-29T05:40:15.150Z,99.99
2019-03-29T05:41:15.148Z,99.99
2019-03-29T05:42:15.141Z,99.99
2019-03-29T05:43:15.135Z,99.99
2019-03-29T05:44:15.130Z,99.99
2019-03-29T05:45:15.127Z,99.99
2019-03-29T05:46:15.120Z,99.99
2019-03-29T05:47:15.119Z,99.99
2019-03-29T05:48:15.110Z,99.99
2019-03-29T05:49:15.103Z,99.99
2019-03-29T05:50:15.101Z,99.99
2019-03-29T05:51:15.090Z,99.99
2019-03-29T05:52:15.085Z,99.99
2019-03-29T05:53:15.080Z,99.99
2019-03-29T05:54:15.076Z,99.99
2019-03-29T05:55:15.071Z,99.99
2019-03-29T05:56:15.064Z,99.99
2019-03-29T05:57:15.063Z,99.99
2019-03-29T05:58:15.057Z,99.99
2019-03-29T05:59:15.048Z,99.99
2019-03-29T06:00:15.043Z,99.99
2019-03-29T06:01:15.040Z,99.99
2019-03-29T06:02:15.033Z,99.99
2019-03-29T06:03:15.033Z,99.99
2019-03-29T06:04:15.022Z,99.99
2019-03-29T06:05:15.016Z,99.99
2019-03-29T06:06:15.015Z,99.99
2019-03-29T06:07:15.005Z,99.99
2019-03-29T06:08:15.000Z,99.99
2019-03-29T06:09:14.998Z,99.99
2019-03-29T06:10:14.994Z,99.99
2019-03-29T06:11:14.985Z,99.99
2019-03-29T06:12:14.984Z,99.99
2019-03-29T06:13:14.977Z,99.99
2019-03-29T06:14:14.971Z,99.99
2019-03-29T06:15:14.965Z,99.99
2019-03-29T06:16:14.960Z,99.99
2019-03-29T06:17:14.953Z,99.99
2019-03-29T06:18:14.949Z,99.99
2019-03-29T06:19:14.945Z,99.99
2019-03-29T06:20:14.941Z,99.99
2019-03-29T06:21:14.933Z,99.99
2019-03-29T06:22:14.930Z,99.99
2019-03-29T06:23:14.922Z,99.99
2019-03-29T06:24:14.920Z,99.99
2019-03-29T06:25:14.912Z,99.99
2019-03-29T06:26:14.910Z,99.99
2019-03-29T06:27:14.903Z,99.99
2019-03-29T06:28:14.899Z,99.99
2019-03-29T06:29:14.892Z,99.99
2019-03-29T06:30:14.889Z,99.99
2019-03-29T06:31:14.879Z,99.99
2019-03-29T06:32:14.875Z,99.99
2019-03-29T06:33:14.871Z,99.99
2019-03-29T06:34:14.868Z,99.99
2019-03-29T06:35:14.859Z,99.99
2019-03-29T06:36:14.854Z,99.99
2019-03-29T06:37:14.855Z,99.99
2019-03-29T06:38:14.846Z,99.99
2019-03-29T06:39:14.841Z,99.99
2019-03-29T06:40:14.835Z,99.99
2019-03-29T06:41:14.830Z,99.99
2019-03-29T06:42:14.829Z,99.99
2019-03-29T06:43:14.819Z,99.99
2019-03-29T06:44:14.815Z,99.99
2019-03-29T06:45:14.810Z,99.99
2019-03-29T06:46:14.806Z,99.99
2019-03-29T06:47:14.798Z,99.99
2019-03-29T06:48:14.795Z,99.99
2019-03-29T06:49:14.790Z,99.99
2019-03-29T06:50:14.785Z,99.99
2019-03-29T06:51:14.784Z,99.99
2019-03-29T06:52:14.779Z,99.99
2019-03-29T06:53:14.771Z,99.99
2019-03-29T06:54:14.766Z,99.99
2019-03-29T06:55:14.764Z,99.99
2019-03-29T06:56:14.755Z,99.99
2019-03-29T06:57:14.750Z,99.99
2019-03-29T06:58:14.745Z,99.99
2019-03-29T06:59:14.740Z,99.99
2019-03-29T07:00:14.738Z,99.99
2019-03-29T07:01:14.730Z,99.99
2019-03-29T07:02:14.727Z,99.99
2019-03-29T07:03:14.720Z,99.99
2019-03-29T07:04:14.718Z,99.99
2019-03-29T07:05:14.710Z,99.99
2019-03-29T07:06:14.708Z,99.99
2019-03-29T07:07:14.853Z,99.99
2019-03-29T07:08:14.705Z,99.99
2019-03-29T07:09:14.695Z,99.99
2019-03-29T07:10:14.686Z,99.99
2019-03-29T07:11:17.724Z,99.99
2019-03-29T07:12:14.678Z,99.99
2019-03-29T07:13:14.675Z,99.99
2019-03-29T07:14:14.670Z,99.99
2019-03-29T07:15:14.666Z,99.99
2019-03-29T07:16:14.659Z,99.99
2019-03-29T07:17:14.655Z,99.99
2019-03-29T07:18:14.649Z,99.99
2019-03-29T07:19:14.649Z,99.99
2019-03-29T07:20:14.639Z,99.99
2019-03-29T07:21:21.484Z,99.99
2019-03-29T07:22:14.631Z,99.99
2019-03-29T07:23:14.627Z,99.99
2019-03-29T07:24:14.622Z,99.99
2019-03-29T07:25:14.618Z,99.99
2019-03-29T07:26:14.612Z,99.99
2019-03-29T07:27:14.606Z,99.99
2019-03-29T07:28:14.603Z,99.99
2019-03-29T07:29:14.599Z,99.99
2019-03-29T07:30:14.598Z,99.99
2019-03-29T07:31:14.591Z,99.99
2019-03-29T07:32:14.612Z,99.99
2019-03-29T07:33:14.583Z,99.99
2019-03-29T07:34:14.577Z,99.99
2019-03-29T07:35:14.614Z,99.99
2019-03-29T07:36:14.569Z,99.99
2019-03-29T07:37:14.558Z,99.99
2019-03-29T07:38:14.572Z,99.99
2019-03-29T07:39:14.551Z,99.99
2019-03-29T07:40:14.552Z,99.99
2019-03-29T07:41:14.544Z,99.99
2019-03-29T07:42:14.543Z,99.99
2019-03-29T07:43:14.536Z,99.99
2019-03-29T07:44:14.532Z,99.99
2019-03-29T07:45:14.533Z,99.99
2019-03-29T07:46:14.572Z,99.99
2019-03-29T07:47:14.518Z,99.99
2019-03-29T07:48:14.516Z,99.99
2019-03-29T07:49:14.510Z,99.99
2019-03-29T07:50:14.507Z,99.99
2019-03-29T07:51:14.501Z,99.99
2019-03-29T07:52:14.601Z,99.99
2019-03-29T07:53:14.492Z,99.99
2019-03-29T07:54:14.491Z,99.99
2019-03-29T07:55:14.487Z,99.99
2019-03-29T07:56:14.479Z,99.99
2019-03-29T07:57:14.480Z,99.99
2019-03-29T07:58:14.474Z,99.99
2019-03-29T07:59:14.469Z,99.99
2019-03-29T08:00:14.474Z,99.99
2019-03-29T08:01:14.461Z,99.99
2019-03-29T08:02:14.456Z,99.99
2019-03-29T08:03:14.453Z,99.99
2019-03-29T08:04:14.448Z,99.99
2019-03-29T08:05:14.447Z,99.99
2019-03-29T08:06:14.446Z,99.99
2019-03-29T08:07:26.730Z,99.99
2019-03-29T08:08:24.084Z,99.99
2019-03-29T08:09:22.268Z,99.99
2019-03-29T08:10:25.762Z,99.99
2019-03-29T08:11:25.478Z,99.99
2019-03-29T08:12:14.428Z,99.99
2019-03-29T08:13:15.330Z,99.99
2019-03-29T08:14:15.040Z,99.99
2019-03-29T08:15:14.409Z,99.99
2019-03-29T08:16:14.400Z,99.99
2019-03-29T08:17:14.398Z,99.99
2019-03-29T08:18:14.397Z,99.99
2019-03-29T08:19:14.389Z,99.99
2019-03-29T08:20:38.147Z,99.99
2019-03-29T08:21:14.381Z,99.99
2019-03-29T08:22:14.381Z,99.99
2019-03-29T08:23:14.374Z,99.99
2019-03-29T08:24:14.447Z,99.99
2019-03-29T08:25:14.372Z,99.99
2019-03-29T08:26:14.373Z,99.99
2019-03-29T08:27:14.360Z,99.99
2019-03-29T08:28:14.353Z,99.99
2019-03-29T08:29:14.352Z,99.99
2019-03-29T08:30:14.347Z,99.99
2019-03-29T08:31:14.347Z,99.99
2019-03-29T08:32:14.340Z,99.99
2019-03-29T08:33:14.337Z,99.99
2019-03-29T08:34:14.339Z,99.99
2019-03-29T08:35:14.383Z,99.99
2019-03-29T08:36:14.327Z,99.99
2019-03-29T08:37:14.322Z,99.99
2019-03-29T08:38:14.322Z,99.99
2019-03-29T08:39:27.260Z,99.99
2019-03-29T08:40:14.315Z,99.99
2019-03-29T08:41:14.312Z,99.99
2019-03-29T08:42:14.311Z,99.99
2019-03-29T08:43:14.305Z,99.99
2019-03-29T08:44:14.301Z,99.99
2019-03-29T08:45:14.293Z,99.99
2019-03-29T08:46:14.369Z,99.99
2019-03-29T08:47:14.289Z,99.99
2019-03-29T08:48:14.286Z,99.99
2019-03-29T08:49:16.867Z,99.99
2019-03-29T08:50:14.281Z,99.99
2019-03-29T08:51:14.271Z,99.99
2019-03-29T08:52:14.272Z,99.99
2019-03-29T08:53:14.265Z,99.99
2019-03-29T08:54:14.261Z,99.99
2019-03-29T08:55:17.309Z,99.99
2019-03-29T08:56:14.254Z,99.99
2019-03-29T08:57:14.255Z,99.99
2019-03-29T08:58:14.247Z,99.99
2019-03-29T08:59:17.215Z,99.99
2019-03-29T09:00:15.872Z,99.99
2019-03-29T09:01:14.237Z,99.99
2019-03-29T09:02:14.232Z,99.99
2019-03-29T09:03:14.230Z,99.99
2019-03-29T09:04:14.225Z,99.99
2019-03-29T09:05:14.221Z,99.99
2019-03-29T09:06:14.322Z,99.99
2019-03-29T09:07:14.260Z,99.99
2019-03-29T09:08:14.320Z,99.99
2019-03-29T09:09:14.291Z,99.99
2019-03-29T09:10:14.238Z,99.99
2019-03-29T09:11:14.264Z,99.99
2019-03-29T09:12:15.033Z,99.99
2019-03-29T09:13:14.234Z,99.99
2019-03-29T09:14:14.190Z,99.99
2019-03-29T09:15:14.188Z,99.99
2019-03-29T09:16:14.182Z,99.99
2019-03-29T09:17:14.180Z,99.99
2019-03-29T09:18:14.177Z,99.99
2019-03-29T09:19:14.177Z,99.99
2019-03-29T09:20:14.168Z,99.99
2019-03-29T09:21:14.165Z,99.99
2019-03-29T09:22:14.169Z,99.99
2019-03-29T09:23:14.156Z,99.99
2019-03-29T09:24:21.989Z,99.99
2019-03-29T09:25:14.155Z,99.99
2019-03-29T09:26:14.147Z,99.99
2019-03-29T09:27:14.143Z,99.99
2019-03-29T09:28:14.140Z,99.99
2019-03-29T09:29:14.137Z,99.99
2019-03-29T09:30:14.133Z,99.99
2019-03-29T09:31:14.129Z,99.99
2019-03-29T09:32:14.141Z,99.99
2019-03-29T09:33:14.126Z,99.99
2019-03-29T09:34:14.119Z,99.99
2019-03-29T09:35:14.121Z,99.99
2019-03-29T09:36:14.113Z,99.99
2019-03-29T09:37:14.112Z,99.99
2019-03-29T09:38:14.106Z,99.99
2019-03-29T09:39:14.101Z,99.99
2019-03-29T09:40:14.239Z,99.99
2019-03-29T09:41:14.095Z,99.99
2019-03-29T09:42:27.773Z,99.99
2019-03-29T09:43:14.091Z,99.99
2019-03-29T09:44:14.088Z,99.99
2019-03-29T09:45:14.084Z,99.99
2019-03-29T09:46:14.078Z,99.99
2019-03-29T09:47:14.073Z,99.99
2019-03-29T09:48:14.073Z,99.99
2019-03-29T09:49:14.068Z,99.99
2019-03-29T09:50:14.064Z,99.99
2019-03-29T09:51:14.064Z,99.99
2019-03-29T09:52:14.060Z,99.99
2019-03-29T09:53:14.054Z,99.99
2019-03-29T09:54:14.053Z,99.99
2019-03-29T09:55:14.050Z,99.99
2019-03-29T09:56:14.043Z,99.99
2019-03-29T09:57:15.576Z,99.99
2019-03-29T09:58:16.567Z,99.99
2019-03-29T09:59:16.407Z,99.99
2019-03-29T10:00:21.093Z,99.99
2019-03-29T10:01:14.053Z,99.99
2019-03-29T10:02:14.028Z,99.99
2019-03-29T10:03:14.024Z,99.99
2019-03-29T10:04:14.022Z,99.99
2019-03-29T10:05:14.022Z,99.99
2019-03-29T10:06:15.444Z,99.99
2019-03-29T10:07:14.009Z,99.99
2019-03-29T10:08:14.005Z,99.99
2019-03-29T10:09:14.004Z,99.99
2019-03-29T10:10:14.002Z,99.99
2019-03-29T10:11:13.999Z,99.99
2019-03-29T10:12:13.988Z,99.99
2019-03-29T10:13:13.991Z,99.99
2019-03-29T10:14:13.987Z,99.99
2019-03-29T10:15:13.982Z,99.99
2019-03-29T10:16:13.981Z,99.99
2019-03-29T10:17:13.979Z,99.99
2019-03-29T10:18:13.976Z,99.99
2019-03-29T10:19:13.970Z,99.99
2019-03-29T10:20:13.969Z,99.99
2019-03-29T10:21:17.006Z,99.99
2019-03-29T10:22:13.963Z,99.99
2019-03-29T10:23:13.959Z,99.99
2019-03-29T10:24:13.958Z,99.99
2019-03-29T10:25:19.554Z,99.99
2019-03-29T10:26:13.949Z,99.99
2019-03-29T10:27:13.946Z,99.99
2019-03-29T10:28:13.947Z,99.99
2019-03-29T10:29:13.941Z,99.99
2019-03-29T10:30:13.937Z,99.99
2019-03-29T10:31:13.940Z,99.99
2019-03-29T10:32:13.931Z,99.99
2019-03-29T10:33:13.932Z,99.99
2019-03-29T10:34:13.927Z,99.99
2019-03-29T10:35:13.925Z,99.99
2019-03-29T10:36:13.921Z,99.52
2019-03-29T10:37:13.921Z,99.04
2019-03-29T10:38:13.916Z,99.71
2019-03-29T10:39:13.912Z,99.10
2019-03-29T10:40:13.916Z,98.66
2019-03-29T10:41:13.912Z,98.52
2019-03-29T10:42:13.908Z,98.81
2019-03-29T10:43:13.902Z,98.43
2019-03-29T10:44:13.899Z,98.52
2019-03-29T10:45:13.903Z,99.10
2019-03-29T10:46:13.896Z,98.19
2019-03-29T10:47:13.895Z,97.61
2019-03-29T10:48:13.900Z,95.70
2019-03-29T10:49:13.891Z,94.45
2019-03-29T10:50:13.887Z,93.98
2019-03-29T10:51:13.884Z,93.40
2019-03-29T10:52:13.882Z,93.21
2019-03-29T10:53:13.882Z,92.35
2019-03-29T10:54:13.964Z,93.02
2019-03-29T10:55:13.875Z,91.01
2019-03-29T10:56:13.873Z,88.19
2019-03-29T10:57:13.870Z,89.53
2019-03-29T10:58:13.868Z,91.35
2019-03-29T10:59:26.796Z,92.21
2019-03-29T11:00:13.863Z,92.11
2019-03-29T11:01:13.860Z,92.88
2019-03-29T11:02:13.861Z,91.49
2019-03-29T11:03:13.860Z,91.20
2019-03-29T11:04:13.855Z,90.25
2019-03-29T11:05:13.852Z,89.96
2019-03-29T11:06:13.850Z,90.06
2019-03-29T11:07:13.847Z,91.20
2019-03-29T11:08:13.846Z,91.49
2019-03-29T11:09:13.843Z,92.16
2019-03-29T11:10:13.843Z,91.78
2019-03-29T11:11:13.840Z,91.88
2019-03-29T11:12:13.841Z,92.64
2019-03-29T11:13:14.391Z,93.98
2019-03-29T11:14:13.834Z,92.74
2019-03-29T11:15:13.828Z,90.53
2019-03-29T11:16:13.835Z,90.63
2019-03-29T11:17:13.827Z,92.07
2019-03-29T11:18:13.823Z,91.11
2019-03-29T11:19:13.815Z,90.73
2019-03-29T11:20:13.816Z,90.73
2019-03-29T11:21:13.815Z,90.30
2019-03-29T11:22:13.812Z,90.20
2019-03-29T11:23:13.815Z,90.20
2019-03-29T11:24:13.809Z,91.16
2019-03-29T11:25:13.805Z,89.10
2019-03-29T11:26:13.802Z,90.06
2019-03-29T11:27:13.799Z,89.96
2019-03-29T11:28:13.798Z,89.20
2019-03-29T11:29:13.793Z,88.91
2019-03-29T11:30:13.793Z,88.62
2019-03-29T11:31:13.793Z,88.62
2019-03-29T11:32:13.787Z,88.19
2019-03-29T11:33:13.829Z,88.09
2019-03-29T11:34:13.783Z,86.08
2019-03-29T11:35:13.784Z,87.04
2019-03-29T11:36:13.778Z,86.37
2019-03-29T11:37:13.782Z,86.47
2019-03-29T11:38:13.773Z,86.66
2019-03-29T11:39:13.770Z,85.57
2019-03-29T11:40:13.771Z,85.71
2019-03-29T11:41:13.769Z,86.23
2019-03-29T11:42:13.763Z,87.00
2019-03-29T11:43:26.071Z,87.90
2019-03-29T11:44:13.759Z,88.00
2019-03-29T11:45:13.756Z,88.19
2019-03-29T11:46:13.757Z,87.04
2019-03-29T11:47:13.760Z,86.08
2019-03-29T11:48:13.752Z,86.28
2019-03-29T11:49:13.747Z,86.37
2019-03-29T11:50:13.747Z,87.04
2019-03-29T11:51:19.593Z,86.28
2019-03-29T11:52:13.740Z,86.18
2019-03-29T11:53:13.737Z,85.80
2019-03-29T11:54:13.737Z,85.61
2019-03-29T11:55:13.733Z,85.99
2019-03-29T11:56:13.731Z,86.80
2019-03-29T11:57:13.728Z,86.33
2019-03-29T11:58:13.729Z,86.43
2019-03-29T11:59:13.723Z,86.23
2019-03-29T12:00:13.722Z,86.33
2019-03-29T12:01:13.721Z,87.00
2019-03-29T12:02:13.719Z,88.72
2019-03-29T12:03:13.716Z,87.29
2019-03-29T12:04:13.711Z,86.80
2019-03-29T12:05:13.715Z,87.38
2019-03-29T12:06:13.708Z,87.48
2019-03-29T12:07:13.705Z,87.95
2019-03-29T12:08:13.707Z,87.57
2019-03-29T12:09:13.701Z,87.29
2019-03-29T12:10:13.697Z,86.80
2019-03-29T12:11:13.701Z,87.19
2019-03-29T12:12:13.694Z,87.86
2019-03-29T12:13:13.693Z,86.90
2019-03-29T12:14:13.692Z,87.66
2019-03-29T12:15:13.686Z,87.29
2019-03-29T12:16:13.684Z,87.33
2019-03-29T12:17:13.681Z,87.71
2019-03-29T12:18:13.687Z,85.51
2019-03-29T12:19:13.678Z,85.66
2019-03-29T12:20:13.670Z,87.04
2019-03-29T12:21:13.673Z,86.90
2019-03-29T12:22:13.675Z,85.80
2019-03-29T12:23:13.667Z,86.37
2019-03-29T12:24:13.665Z,86.37
2019-03-29T12:25:13.663Z,86.37
2019-03-29T12:26:13.664Z,86.28
2019-03-29T12:27:13.657Z,86.37
2019-03-29T12:28:13.687Z,87.00
2019-03-29T12:29:13.652Z,86.94
2019-03-29T12:30:30.635Z,85.99
2019-03-29T12:31:13.648Z,85.71
2019-03-29T12:32:13.652Z,87.00
2019-03-29T12:33:13.642Z,86.71
2019-03-29T12:34:13.675Z,86.85
2019-03-29T12:35:13.638Z,86.76
2019-03-29T12:36:13.634Z,86.85
2019-03-29T12:37:13.632Z,86.37
2019-03-29T12:38:13.633Z,86.18
2019-03-29T12:39:13.628Z,86.76
2019-03-29T12:40:13.628Z,86.08
2019-03-29T12:41:13.625Z,85.89
2019-03-29T12:42:13.630Z,86.08
2019-03-29T12:43:13.621Z,85.22
2019-03-29T12:44:13.618Z,85.61
2019-03-29T12:45:13.616Z,85.13
2019-03-29T12:46:13.613Z,85.13
2019-03-29T12:47:13.609Z,84.46
2019-03-29T12:48:13.609Z,85.89
2019-03-29T12:49:13.604Z,85.89
2019-03-29T12:50:13.607Z,84.08
2019-03-29T12:51:13.605Z,84.08
2019-03-29T12:52:13.599Z,85.89